sensor_id;sensor_type;location;lat;lon;timestamp;temperature;humidity
27823;DHT22;29019;47.630;8.262;2022-08-11T00:03:02;27.50;35.80
27823;DHT22;29019;47.630;8.262;2022-08-11T00:07:03;27.50;35.80
27823;DHT22;29019;47.630;8.262;2022-08-11T00:11:07;27.50;35.80
27823;DHT22;29019;47.630;8.262;2022-08-11T00:15:08;27.40;35.70
27823;DHT22;29019;47.630;8.262;2022-08-11T00:19:09;27.40;35.80
27823;DHT22;29019;47.630;8.262;2022-08-11T00:23:13;27.40;35.70
27823;DHT22;29019;47.630;8.262;2022-08-11T00:27:13;27.40;35.80
27823;DHT22;29019;47.630;8.262;2022-08-11T00:31:25;27.40;35.80
27823;DHT22;29019;47.630;8.262;2022-08-11T00:35:27;27.30;35.70
27823;DHT22;29019;47.630;8.262;2022-08-11T00:39:32;27.40;35.80
27823;DHT22;29019;47.630;8.262;2022-08-11T00:48:25;27.40;35.90
27823;DHT22;29019;47.630;8.262;2022-08-11T00:52:31;27.30;35.80
27823;DHT22;29019;47.630;8.262;2022-08-11T00:56:59;27.30;35.80
27823;DHT22;29019;47.630;8.262;2022-08-11T01:52:02;27.20;35.80
27823;DHT22;29019;47.630;8.262;2022-08-11T01:56:12;27.20;35.80
27823;DHT22;29019;47.630;8.262;2022-08-11T02:00:17;27.20;35.90
27823;DHT22;29019;47.630;8.262;2022-08-11T02:08:26;27.10;35.80
27823;DHT22;29019;47.630;8.262;2022-08-11T02:29:07;27.10;35.90
27823;DHT22;29019;47.630;8.262;2022-08-11T02:33:15;27.10;35.90
27823;DHT22;29019;47.630;8.262;2022-08-11T02:46:04;27.00;35.90
27823;DHT22;29019;47.630;8.262;2022-08-11T02:50:14;27.00;35.90
27823;DHT22;29019;47.630;8.262;2022-08-11T02:59:03;27.00;35.90
27823;DHT22;29019;47.630;8.262;2022-08-11T03:03:35;27.00;35.90
27823;DHT22;29019;47.630;8.262;2022-08-11T03:12:21;26.90;35.90
27823;DHT22;29019;47.630;8.262;2022-08-11T03:16:40;26.90;35.90
27823;DHT22;29019;47.630;8.262;2022-08-11T03:20:53;26.90;35.90
27823;DHT22;29019;47.630;8.262;2022-08-11T03:25:02;26.90;35.90
27823;DHT22;29019;47.630;8.262;2022-08-11T03:41:52;26.80;35.90
27823;DHT22;29019;47.630;8.262;2022-08-11T03:46:03;26.80;35.90
27823;DHT22;29019;47.630;8.262;2022-08-11T03:54:28;26.80;35.90
27823;DHT22;29019;47.630;8.262;2022-08-11T03:58:40;26.80;36.00
27823;DHT22;29019;47.630;8.262;2022-08-11T04:07:05;26.80;36.00
27823;DHT22;29019;47.630;8.262;2022-08-11T04:11:31;26.80;36.00
27823;DHT22;29019;47.630;8.262;2022-08-11T04:28:59;26.80;36.00
27823;DHT22;29019;47.630;8.262;2022-08-11T04:33:09;26.80;36.00
27823;DHT22;29019;47.630;8.262;2022-08-11T04:37:31;26.70;36.00
27823;DHT22;29019;47.630;8.262;2022-08-11T04:50:36;26.70;36.00
27823;DHT22;29019;47.630;8.262;2022-08-11T04:55:06;26.70;36.00
27823;DHT22;29019;47.630;8.262;2022-08-11T05:04:12;26.70;36.10
27823;DHT22;29019;47.630;8.262;2022-08-11T05:12:58;26.60;36.00
27823;DHT22;29019;47.630;8.262;2022-08-11T05:17:25;26.60;36.00
27823;DHT22;29019;47.630;8.262;2022-08-11T05:21:47;26.60;36.00
27823;DHT22;29019;47.630;8.262;2022-08-11T05:26:09;26.60;36.10
27823;DHT22;29019;47.630;8.262;2022-08-11T05:30:32;26.50;36.00
27823;DHT22;29019;47.630;8.262;2022-08-11T05:34:53;26.60;36.10
27823;DHT22;29019;47.630;8.262;2022-08-11T05:39:12;26.50;36.00
27823;DHT22;29019;47.630;8.262;2022-08-11T05:43:32;26.50;36.00
27823;DHT22;29019;47.630;8.262;2022-08-11T05:47:53;26.60;36.10
27823;DHT22;29019;47.630;8.262;2022-08-11T05:52:15;26.60;36.10
27823;DHT22;29019;47.630;8.262;2022-08-11T05:56:41;26.60;36.10
27823;DHT22;29019;47.630;8.262;2022-08-11T06:00:43;26.50;36.00
27823;DHT22;29019;47.630;8.262;2022-08-11T06:04:44;26.60;36.10
27823;DHT22;29019;47.630;8.262;2022-08-11T06:08:45;26.50;36.00
27823;DHT22;29019;47.630;8.262;2022-08-11T06:12:49;26.60;36.10
27823;DHT22;29019;47.630;8.262;2022-08-11T06:16:52;26.50;36.00
27823;DHT22;29019;47.630;8.262;2022-08-11T06:20:54;26.60;36.10
27823;DHT22;29019;47.630;8.262;2022-08-11T06:24:57;26.50;36.00
27823;DHT22;29019;47.630;8.262;2022-08-11T06:28:58;26.50;36.00
27823;DHT22;29019;47.630;8.262;2022-08-11T06:33:00;26.50;36.00
27823;DHT22;29019;47.630;8.262;2022-08-11T06:37:12;26.50;36.00
27823;DHT22;29019;47.630;8.262;2022-08-11T06:41:23;26.50;36.10
27823;DHT22;29019;47.630;8.262;2022-08-11T06:49:32;26.50;36.10
27823;DHT22;29019;47.630;8.262;2022-08-11T06:53:55;26.50;36.10
27823;DHT22;29019;47.630;8.262;2022-08-11T06:58:00;26.50;36.00
27823;DHT22;29019;47.630;8.262;2022-08-11T07:02:27;26.60;36.10
27823;DHT22;29019;47.630;8.262;2022-08-11T07:10:41;26.50;36.00
27823;DHT22;29019;47.630;8.262;2022-08-11T07:15:05;26.60;36.00
27823;DHT22;29019;47.630;8.262;2022-08-11T07:19:26;26.60;36.00
27823;DHT22;29019;47.630;8.262;2022-08-11T07:23:46;26.60;35.90
27823;DHT22;29019;47.630;8.262;2022-08-11T07:28:08;26.60;36.00
27823;DHT22;29019;47.630;8.262;2022-08-11T07:32:32;26.60;35.90
27823;DHT22;29019;47.630;8.262;2022-08-11T07:36:33;26.60;36.00
27823;DHT22;29019;47.630;8.262;2022-08-11T07:40:37;26.60;36.00
27823;DHT22;29019;47.630;8.262;2022-08-11T07:44:39;26.60;36.00
27823;DHT22;29019;47.630;8.262;2022-08-11T07:48:58;26.60;36.00
27823;DHT22;29019;47.630;8.262;2022-08-11T07:53:17;26.60;36.00
27823;DHT22;29019;47.630;8.262;2022-08-11T07:57:20;26.60;35.90
27823;DHT22;29019;47.630;8.262;2022-08-11T08:01:38;26.60;36.00
27823;DHT22;29019;47.630;8.262;2022-08-11T08:05:59;26.60;35.90
27823;DHT22;29019;47.630;8.262;2022-08-11T08:10:18;26.60;35.90
27823;DHT22;29019;47.630;8.262;2022-08-11T08:14:38;26.70;36.00
27823;DHT22;29019;47.630;8.262;2022-08-11T08:18:57;26.70;36.00
27823;DHT22;29019;47.630;8.262;2022-08-11T08:22:58;26.70;36.00
27823;DHT22;29019;47.630;8.262;2022-08-11T08:26:59;26.70;36.00
27823;DHT22;29019;47.630;8.262;2022-08-11T08:30:59;26.70;36.00
27823;DHT22;29019;47.630;8.262;2022-08-11T08:35:00;26.70;36.00
27823;DHT22;29019;47.630;8.262;2022-08-11T08:39:02;26.70;36.10
27823;DHT22;29019;47.630;8.262;2022-08-11T08:43:06;26.70;36.00
27823;DHT22;29019;47.630;8.262;2022-08-11T08:47:11;26.80;36.00
27823;DHT22;29019;47.630;8.262;2022-08-11T08:51:12;26.80;36.10
27823;DHT22;29019;47.630;8.262;2022-08-11T08:55:32;26.80;36.10
27823;DHT22;29019;47.630;8.262;2022-08-11T08:59:34;26.80;36.10
27823;DHT22;29019;47.630;8.262;2022-08-11T09:03:36;26.80;36.10
27823;DHT22;29019;47.630;8.262;2022-08-11T09:07:37;26.80;36.10
27823;DHT22;29019;47.630;8.262;2022-08-11T09:11:39;26.80;36.10
27823;DHT22;29019;47.630;8.262;2022-08-11T09:15:49;26.80;36.10
27823;DHT22;29019;47.630;8.262;2022-08-11T09:19:51;26.80;36.10
27823;DHT22;29019;47.630;8.262;2022-08-11T09:23:57;26.90;36.10
27823;DHT22;29019;47.630;8.262;2022-08-11T09:28:18;26.90;36.10
27823;DHT22;29019;47.630;8.262;2022-08-11T09:32:20;26.90;36.10
27823;DHT22;29019;47.630;8.262;2022-08-11T09:36:21;26.90;36.10
27823;DHT22;29019;47.630;8.262;2022-08-11T09:40:41;26.90;36.10
27823;DHT22;29019;47.630;8.262;2022-08-11T09:44:43;27.00;36.20
27823;DHT22;29019;47.630;8.262;2022-08-11T09:48:51;27.00;36.10
27823;DHT22;29019;47.630;8.262;2022-08-11T09:52:53;27.00;36.10
27823;DHT22;29019;47.630;8.262;2022-08-11T09:56:54;27.00;36.10
27823;DHT22;29019;47.630;8.262;2022-08-11T10:01:13;27.00;36.10
27823;DHT22;29019;47.630;8.262;2022-08-11T10:05:26;27.10;36.20
27823;DHT22;29019;47.630;8.262;2022-08-11T10:13:46;27.10;36.10
27823;DHT22;29019;47.630;8.262;2022-08-11T10:18:08;27.10;36.10
27823;DHT22;29019;47.630;8.262;2022-08-11T10:22:27;27.10;36.10
27823;DHT22;29019;47.630;8.262;2022-08-11T10:26:47;27.20;36.20
27823;DHT22;29019;47.630;8.262;2022-08-11T10:30:53;27.20;36.10
27823;DHT22;29019;47.630;8.262;2022-08-11T10:35:16;27.20;36.10
27823;DHT22;29019;47.630;8.262;2022-08-11T10:39:17;27.20;36.10
27823;DHT22;29019;47.630;8.262;2022-08-11T10:43:18;27.30;36.20
27823;DHT22;29019;47.630;8.262;2022-08-11T10:47:20;27.30;36.20
27823;DHT22;29019;47.630;8.262;2022-08-11T10:51:35;27.30;36.20
27823;DHT22;29019;47.630;8.262;2022-08-11T10:55:55;27.30;36.20
27823;DHT22;29019;47.630;8.262;2022-08-11T11:00:14;27.30;36.10
27823;DHT22;29019;47.630;8.262;2022-08-11T11:04:17;27.30;36.10
27823;DHT22;29019;47.630;8.262;2022-08-11T11:08:18;27.30;36.10
27823;DHT22;29019;47.630;8.262;2022-08-11T11:12:45;27.30;36.10
27823;DHT22;29019;47.630;8.262;2022-08-11T11:17:05;27.40;36.10
27823;DHT22;29019;47.630;8.262;2022-08-11T11:21:09;27.40;36.10
27823;DHT22;29019;47.630;8.262;2022-08-11T11:33:16;27.40;36.10
27823;DHT22;29019;47.630;8.262;2022-08-11T11:37:18;27.50;36.10
27823;DHT22;29019;47.630;8.262;2022-08-11T11:41:19;27.50;36.10
27823;DHT22;29019;47.630;8.262;2022-08-11T11:45:26;27.50;36.10
27823;DHT22;29019;47.630;8.262;2022-08-11T11:49:27;27.50;36.00
27823;DHT22;29019;47.630;8.262;2022-08-11T11:53:28;27.60;36.10
27823;DHT22;29019;47.630;8.262;2022-08-11T11:57:29;27.50;36.00
27823;DHT22;29019;47.630;8.262;2022-08-11T12:01:48;27.60;36.00
27823;DHT22;29019;47.630;8.262;2022-08-11T12:05:48;27.60;36.00
27823;DHT22;29019;47.630;8.262;2022-08-11T12:09:51;27.60;36.00
27823;DHT22;29019;47.630;8.262;2022-08-11T12:13:53;27.60;36.00
27823;DHT22;29019;47.630;8.262;2022-08-11T12:17:54;27.70;36.10
27823;DHT22;29019;47.630;8.262;2022-08-11T12:21:56;27.70;36.10
27823;DHT22;29019;47.630;8.262;2022-08-11T12:26:15;27.70;36.10
27823;DHT22;29019;47.630;8.262;2022-08-11T12:30:35;27.80;36.10
27823;DHT22;29019;47.630;8.262;2022-08-11T12:34:40;27.80;36.10
27823;DHT22;29019;47.630;8.262;2022-08-11T12:38:41;27.80;36.10
27823;DHT22;29019;47.630;8.262;2022-08-11T12:42:43;27.80;36.00
27823;DHT22;29019;47.630;8.262;2022-08-11T12:47:03;27.90;36.00
27823;DHT22;29019;47.630;8.262;2022-08-11T12:51:05;27.90;36.00
27823;DHT22;29019;47.630;8.262;2022-08-11T12:55:24;27.90;35.90
27823;DHT22;29019;47.630;8.262;2022-08-11T12:59:43;27.90;35.90
27823;DHT22;29019;47.630;8.262;2022-08-11T13:04:03;27.90;35.80
27823;DHT22;29019;47.630;8.262;2022-08-11T13:08:23;27.90;35.80
27823;DHT22;29019;47.630;8.262;2022-08-11T13:12:24;28.00;35.80
27823;DHT22;29019;47.630;8.262;2022-08-11T13:16:44;28.00;35.90
27823;DHT22;29019;47.630;8.262;2022-08-11T13:21:03;28.00;35.90
27823;DHT22;29019;47.630;8.262;2022-08-11T13:25:04;28.00;35.80
27823;DHT22;29019;47.630;8.262;2022-08-11T13:29:05;28.00;35.80
27823;DHT22;29019;47.630;8.262;2022-08-11T13:33:05;28.00;35.80
27823;DHT22;29019;47.630;8.262;2022-08-11T13:37:08;28.00;35.80
27823;DHT22;29019;47.630;8.262;2022-08-11T13:41:09;28.00;35.80
27823;DHT22;29019;47.630;8.262;2022-08-11T13:45:28;28.10;35.80
27823;DHT22;29019;47.630;8.262;2022-08-11T13:49:34;28.10;35.90
27823;DHT22;29019;47.630;8.262;2022-08-11T13:53:34;28.10;35.80
27823;DHT22;29019;47.630;8.262;2022-08-11T13:57:35;28.10;35.80
27823;DHT22;29019;47.630;8.262;2022-08-11T14:01:37;28.10;35.80
27823;DHT22;29019;47.630;8.262;2022-08-11T14:05:40;28.10;35.80
27823;DHT22;29019;47.630;8.262;2022-08-11T14:09:43;28.10;35.80
27823;DHT22;29019;47.630;8.262;2022-08-11T14:13:44;28.10;35.80
27823;DHT22;29019;47.630;8.262;2022-08-11T14:17:46;28.10;35.80
27823;DHT22;29019;47.630;8.262;2022-08-11T14:21:49;28.10;35.80
27823;DHT22;29019;47.630;8.262;2022-08-11T14:26:09;28.10;35.80
27823;DHT22;29019;47.630;8.262;2022-08-11T14:30:28;28.10;35.70
27823;DHT22;29019;47.630;8.262;2022-08-11T14:34:58;28.10;35.80
27823;DHT22;29019;47.630;8.262;2022-08-11T14:39:00;28.20;35.80
27823;DHT22;29019;47.630;8.262;2022-08-11T14:43:01;28.20;35.80
27823;DHT22;29019;47.630;8.262;2022-08-11T14:47:20;28.20;35.80
27823;DHT22;29019;47.630;8.262;2022-08-11T14:51:21;28.20;35.80
27823;DHT22;29019;47.630;8.262;2022-08-11T14:55:23;28.20;35.80
27823;DHT22;29019;47.630;8.262;2022-08-11T14:59:42;28.20;35.80
27823;DHT22;29019;47.630;8.262;2022-08-11T15:03:44;28.20;35.80
27823;DHT22;29019;47.630;8.262;2022-08-11T15:07:45;28.20;35.80
27823;DHT22;29019;47.630;8.262;2022-08-11T15:11:45;28.20;35.80
27823;DHT22;29019;47.630;8.262;2022-08-11T15:16:04;28.20;35.70
27823;DHT22;29019;47.630;8.262;2022-08-11T15:20:24;28.20;35.70
27823;DHT22;29019;47.630;8.262;2022-08-11T15:24:43;28.20;35.70
27823;DHT22;29019;47.630;8.262;2022-08-11T15:28:48;28.20;35.80
27823;DHT22;29019;47.630;8.262;2022-08-11T15:33:10;28.20;35.70
27823;DHT22;29019;47.630;8.262;2022-08-11T15:37:29;28.20;35.70
27823;DHT22;29019;47.630;8.262;2022-08-11T15:41:53;28.20;35.70
27823;DHT22;29019;47.630;8.262;2022-08-11T15:46:11;28.30;35.80
27823;DHT22;29019;47.630;8.262;2022-08-11T15:50:15;28.20;35.70
27823;DHT22;29019;47.630;8.262;2022-08-11T15:54:17;28.20;35.80
27823;DHT22;29019;47.630;8.262;2022-08-11T15:58:18;28.30;35.80
27823;DHT22;29019;47.630;8.262;2022-08-11T16:02:38;28.20;35.70
27823;DHT22;29019;47.630;8.262;2022-08-11T16:06:52;28.20;35.60
27823;DHT22;29019;47.630;8.262;2022-08-11T16:10:53;28.30;35.60
27823;DHT22;29019;47.630;8.262;2022-08-11T16:14:56;28.30;35.60
27823;DHT22;29019;47.630;8.262;2022-08-11T16:19:16;28.30;35.70
27823;DHT22;29019;47.630;8.262;2022-08-11T16:23:17;28.20;35.60
27823;DHT22;29019;47.630;8.262;2022-08-11T16:27:18;28.30;35.60
27823;DHT22;29019;47.630;8.262;2022-08-11T16:31:20;28.30;35.60
27823;DHT22;29019;47.630;8.262;2022-08-11T16:35:22;28.30;35.60
27823;DHT22;29019;47.630;8.262;2022-08-11T16:39:41;28.30;35.60
27823;DHT22;29019;47.630;8.262;2022-08-11T16:43:43;28.20;35.50
27823;DHT22;29019;47.630;8.262;2022-08-11T16:48:03;28.30;35.60
27823;DHT22;29019;47.630;8.262;2022-08-11T16:52:05;28.30;35.60
27823;DHT22;29019;47.630;8.262;2022-08-11T16:56:10;28.30;35.60
27823;DHT22;29019;47.630;8.262;2022-08-11T17:00:16;28.30;35.60
27823;DHT22;29019;47.630;8.262;2022-08-11T17:04:23;28.20;35.50
27823;DHT22;29019;47.630;8.262;2022-08-11T17:08:50;28.20;35.60
27823;DHT22;29019;47.630;8.262;2022-08-11T17:13:10;28.20;35.60
27823;DHT22;29019;47.630;8.262;2022-08-11T17:17:12;28.20;35.60
27823;DHT22;29019;47.630;8.262;2022-08-11T17:21:17;28.20;35.60
27823;DHT22;29019;47.630;8.262;2022-08-11T17:25:18;28.20;35.60
27823;DHT22;29019;47.630;8.262;2022-08-11T17:29:20;28.20;35.60
27823;DHT22;29019;47.630;8.262;2022-08-11T17:33:23;28.20;35.60
27823;DHT22;29019;47.630;8.262;2022-08-11T17:37:43;28.20;35.60
27823;DHT22;29019;47.630;8.262;2022-08-11T17:41:43;28.20;35.60
27823;DHT22;29019;47.630;8.262;2022-08-11T17:46:03;28.20;35.60
27823;DHT22;29019;47.630;8.262;2022-08-11T17:50:09;28.20;35.60
27823;DHT22;29019;47.630;8.262;2022-08-11T17:54:11;28.20;35.50
27823;DHT22;29019;47.630;8.262;2022-08-11T17:58:30;28.20;35.50
27823;DHT22;29019;47.630;8.262;2022-08-11T18:02:50;28.20;35.60
27823;DHT22;29019;47.630;8.262;2022-08-11T18:07:10;28.20;35.60
27823;DHT22;29019;47.630;8.262;2022-08-11T18:11:30;28.20;35.60
27823;DHT22;29019;47.630;8.262;2022-08-11T18:15:49;28.20;35.60
27823;DHT22;29019;47.630;8.262;2022-08-11T18:20:09;28.20;35.60
27823;DHT22;29019;47.630;8.262;2022-08-11T18:24:29;28.10;35.60
27823;DHT22;29019;47.630;8.262;2022-08-11T18:28:49;28.10;35.70
27823;DHT22;29019;47.630;8.262;2022-08-11T18:33:09;28.10;35.70
27823;DHT22;29019;47.630;8.262;2022-08-11T18:37:31;28.10;35.80
27823;DHT22;29019;47.630;8.262;2022-08-11T18:41:51;28.10;35.80
27823;DHT22;29019;47.630;8.262;2022-08-11T18:46:12;28.10;35.80
27823;DHT22;29019;47.630;8.262;2022-08-11T18:50:32;28.10;35.80
27823;DHT22;29019;47.630;8.262;2022-08-11T18:54:53;28.10;35.70
27823;DHT22;29019;47.630;8.262;2022-08-11T18:59:16;28.10;35.80
27823;DHT22;29019;47.630;8.262;2022-08-11T19:03:35;28.10;35.80
27823;DHT22;29019;47.630;8.262;2022-08-11T19:07:56;28.10;35.80
27823;DHT22;29019;47.630;8.262;2022-08-11T19:12:16;28.10;35.80
27823;DHT22;29019;47.630;8.262;2022-08-11T19:16:36;28.10;35.80
27823;DHT22;29019;47.630;8.262;2022-08-11T19:20:55;28.10;35.80
27823;DHT22;29019;47.630;8.262;2022-08-11T19:25:14;28.10;35.80
27823;DHT22;29019;47.630;8.262;2022-08-11T19:29:34;28.10;35.80
27823;DHT22;29019;47.630;8.262;2022-08-11T19:33:54;28.10;35.80
27823;DHT22;29019;47.630;8.262;2022-08-11T19:38:16;28.10;35.80
27823;DHT22;29019;47.630;8.262;2022-08-11T19:42:35;28.10;35.80
27823;DHT22;29019;47.630;8.262;2022-08-11T19:46:55;28.00;35.80
27823;DHT22;29019;47.630;8.262;2022-08-11T19:51:14;28.00;35.80
27823;DHT22;29019;47.630;8.262;2022-08-11T19:55:34;28.00;35.80
27823;DHT22;29019;47.630;8.262;2022-08-11T19:59:54;28.10;35.80
27823;DHT22;29019;47.630;8.262;2022-08-11T20:04:13;28.00;35.80
27823;DHT22;29019;47.630;8.262;2022-08-11T20:08:33;28.00;35.70
27823;DHT22;29019;47.630;8.262;2022-08-11T20:12:53;28.00;35.80
27823;DHT22;29019;47.630;8.262;2022-08-11T20:17:12;28.00;35.80
27823;DHT22;29019;47.630;8.262;2022-08-11T20:21:32;28.00;35.80
27823;DHT22;29019;47.630;8.262;2022-08-11T20:25:52;28.00;35.80
27823;DHT22;29019;47.630;8.262;2022-08-11T20:30:13;28.00;35.80
27823;DHT22;29019;47.630;8.262;2022-08-11T20:34:32;28.00;35.80
27823;DHT22;29019;47.630;8.262;2022-08-11T20:38:54;28.00;35.80
27823;DHT22;29019;47.630;8.262;2022-08-11T20:43:14;28.00;35.80
27823;DHT22;29019;47.630;8.262;2022-08-11T20:47:35;27.90;35.70
27823;DHT22;29019;47.630;8.262;2022-08-11T20:51:54;27.90;35.80
27823;DHT22;29019;47.630;8.262;2022-08-11T20:56:13;27.90;35.80
27823;DHT22;29019;47.630;8.262;2022-08-11T21:00:34;27.90;35.80
27823;DHT22;29019;47.630;8.262;2022-08-11T21:04:53;27.90;35.80
27823;DHT22;29019;47.630;8.262;2022-08-11T21:09:12;27.90;35.80
27823;DHT22;29019;47.630;8.262;2022-08-11T21:13:36;27.90;35.80
27823;DHT22;29019;47.630;8.262;2022-08-11T21:17:55;27.90;35.80
27823;DHT22;29019;47.630;8.262;2022-08-11T21:22:19;27.90;35.80
27823;DHT22;29019;47.630;8.262;2022-08-11T21:26:40;27.90;35.80
27823;DHT22;29019;47.630;8.262;2022-08-11T21:31:00;27.90;35.80
27823;DHT22;29019;47.630;8.262;2022-08-11T21:35:19;27.90;35.80
27823;DHT22;29019;47.630;8.262;2022-08-11T21:39:38;27.80;35.80
27823;DHT22;29019;47.630;8.262;2022-08-11T21:43:59;27.80;35.80
27823;DHT22;29019;47.630;8.262;2022-08-11T21:48:19;27.80;35.80
27823;DHT22;29019;47.630;8.262;2022-08-11T21:52:39;27.80;35.80
27823;DHT22;29019;47.630;8.262;2022-08-11T21:56:59;27.80;35.80
27823;DHT22;29019;47.630;8.262;2022-08-11T22:01:19;27.80;35.80
27823;DHT22;29019;47.630;8.262;2022-08-11T22:05:39;27.80;35.80
27823;DHT22;29019;47.630;8.262;2022-08-11T22:09:58;27.80;35.80
27823;DHT22;29019;47.630;8.262;2022-08-11T22:14:17;27.80;35.80
27823;DHT22;29019;47.630;8.262;2022-08-11T22:18:37;27.80;35.90
27823;DHT22;29019;47.630;8.262;2022-08-11T22:22:57;27.80;35.90
27823;DHT22;29019;47.630;8.262;2022-08-11T22:27:16;27.70;35.80
27823;DHT22;29019;47.630;8.262;2022-08-11T22:31:35;27.70;35.80
27823;DHT22;29019;47.630;8.262;2022-08-11T22:35:55;27.70;35.80
27823;DHT22;29019;47.630;8.262;2022-08-11T22:40:15;27.70;35.80
27823;DHT22;29019;47.630;8.262;2022-08-11T22:44:34;27.80;35.90
27823;DHT22;29019;47.630;8.262;2022-08-11T22:48:53;27.70;35.80
27823;DHT22;29019;47.630;8.262;2022-08-11T22:53:13;27.70;35.80
27823;DHT22;29019;47.630;8.262;2022-08-11T22:57:33;27.70;35.90
27823;DHT22;29019;47.630;8.262;2022-08-11T23:01:52;27.70;35.90
27823;DHT22;29019;47.630;8.262;2022-08-11T23:06:12;27.70;35.90
27823;DHT22;29019;47.630;8.262;2022-08-11T23:10:32;27.60;35.80
27823;DHT22;29019;47.630;8.262;2022-08-11T23:14:51;27.60;35.80
27823;DHT22;29019;47.630;8.262;2022-08-11T23:19:10;27.60;35.90
27823;DHT22;29019;47.630;8.262;2022-08-11T23:23:29;27.60;35.90
27823;DHT22;29019;47.630;8.262;2022-08-11T23:27:48;27.60;35.90
27823;DHT22;29019;47.630;8.262;2022-08-11T23:32:07;27.60;35.90
27823;DHT22;29019;47.630;8.262;2022-08-11T23:36:27;27.60;35.90
27823;DHT22;29019;47.630;8.262;2022-08-11T23:40:46;27.60;35.90
27823;DHT22;29019;47.630;8.262;2022-08-11T23:45:05;27.60;36.00
27823;DHT22;29019;47.630;8.262;2022-08-11T23:49:24;27.60;36.00
27823;DHT22;29019;47.630;8.262;2022-08-11T23:53:44;27.60;35.90
27823;DHT22;29019;47.630;8.262;2022-08-11T23:58:04;27.60;36.00
